Time;durP1;ratioP1;P1;durP2;ratioP2;P2;SDS_P1;SDS_P2;PMS_P1;PMS_P2;Temp;Humidity;BMP_temperature;BMP_pressure;BME280_temperature;BME280_humidity;BME280_pressure;Samples;Min_cycle;Max_cycle;Signal;HPM_P1;HPM_P2
2021/11/19 00:00:48;;;;;;;5.10;3.45;;;5.40;99.90;;;;;;5040260;28;20030;-78
2021/11/19 00:03:14;;;;;;;6.50;3.85;;;5.40;99.90;;;;;;5028422;28;20037;-77
2021/11/19 00:05:40;;;;;;;5.40;3.83;;;5.40;99.90;;;;;;5043467;28;20560;-77
2021/11/19 00:08:07;;;;;;;5.05;3.42;;;5.40;99.90;;;;;;5040226;28;20049;-77
2021/11/19 00:10:34;;;;;;;7.05;3.95;;;5.40;99.90;;;;;;5025872;28;20029;-77
2021/11/19 00:13:00;;;;;;;5.15;3.30;;;5.40;99.90;;;;;;5026060;28;20051;-77
2021/11/19 00:15:27;;;;;;;5.22;3.38;;;5.40;99.90;;;;;;5033750;28;20017;-78
2021/11/19 00:17:52;;;;;;;9.40;3.50;;;5.40;99.90;;;;;;5047920;28;20083;-79
2021/11/19 00:20:28;;;;;;;6.38;3.72;;;5.40;99.90;;;;;;5052795;28;20108;-79
2021/11/19 00:23:01;;;;;;;;;;;5.40;99.90;;;;;;5049204;28;20057;-79
2021/11/19 00:25:27;;;;;;;5.05;3.30;;;5.40;99.90;;;;;;5035049;28;19912;-79
2021/11/19 00:27:54;;;;;;;5.80;2.95;;;5.40;99.90;;;;;;5045350;28;20467;-78
2021/11/19 00:30:21;;;;;;;4.03;2.83;;;5.40;99.90;;;;;;5046293;28;20056;-77
2021/11/19 00:32:47;;;;;;;6.97;3.13;;;5.40;99.90;;;;;;5044575;28;20139;-79
2021/11/19 00:35:14;;;;;;;4.55;3.50;;;5.40;99.90;;;;;;5050171;28;20071;-77
2021/11/19 00:37:41;;;;;;;4.07;2.75;;;5.40;99.90;;;;;;5051909;28;20481;-79
2021/11/19 00:40:12;;;;;;;5.38;3.25;;;5.40;99.90;;;;;;5050219;28;20517;-79
2021/11/19 00:42:38;;;;;;;5.65;3.40;;;5.40;99.90;;;;;;5043762;28;20025;-79
2021/11/19 00:45:04;;;;;;;5.03;3.22;;;5.40;99.90;;;;;;5047623;28;20544;-79
2021/11/19 00:47:30;;;;;;;6.40;3.33;;;5.30;99.90;;;;;;5044342;28;20042;-79
2021/11/19 00:49:59;;;;;;;5.13;3.55;;;5.30;99.90;;;;;;5052653;28;20037;-79
2021/11/19 00:52:26;;;;;;;4.32;2.90;;;5.30;99.90;;;;;;5043290;28;20527;-79
2021/11/19 00:54:52;;;;;;;5.78;3.55;;;5.30;99.90;;;;;;5035381;28;20033;-79
2021/11/19 00:57:20;;;;;;;5.07;3.45;;;5.40;99.90;;;;;;5048422;28;20080;-79
2021/11/19 00:59:48;;;;;;;4.25;2.88;;;5.40;99.90;;;;;;5030618;28;20432;-79
2021/11/19 01:02:22;;;;;;;4.28;3.15;;;5.40;99.90;;;;;;5032362;28;20030;-79
2021/11/19 01:04:49;;;;;;;3.90;2.50;;;5.40;99.90;;;;;;5037323;28;20064;-78
2021/11/19 01:07:17;;;;;;;4.80;2.90;;;5.40;99.90;;;;;;5036775;28;20025;-78
2021/11/19 01:09:48;;;;;;;5.20;2.45;;;5.40;99.90;;;;;;5043980;28;20029;-79
2021/11/19 01:12:18;;;;;;;4.90;2.38;;;5.50;99.90;;;;;;5035672;28;20090;-79
2021/11/19 01:15:12;;;;;;;3.60;2.22;;;5.50;99.90;;;;;;5050872;28;20048;-79
2021/11/19 01:17:52;;;;;;;4.05;2.17;;;5.40;99.90;;;;;;5064955;28;20025;-79
2021/11/19 01:20:42;;;;;;;3.53;2.45;;;5.40;99.90;;;;;;5042600;28;20025;-79
2021/11/19 01:23:10;;;;;;;4.97;2.90;;;5.40;99.90;;;;;;5032430;28;20128;-78
2021/11/19 01:25:39;;;;;;;3.85;2.70;;;5.50;99.90;;;;;;5045488;28;20033;-78
2021/11/19 01:28:05;;;;;;;3.65;2.60;;;5.50;99.90;;;;;;5044908;28;20087;-79
2021/11/19 01:30:54;;;;;;;5.38;2.50;;;5.40;99.90;;;;;;5044678;28;20098;-78
2021/11/19 01:33:20;;;;;;;2.80;2.28;;;5.40;99.90;;;;;;5043978;28;20029;-79
2021/11/19 01:36:06;;;;;;;5.47;2.80;;;5.40;99.90;;;;;;5046167;28;20425;-79
2021/11/19 01:38:48;;;;;;;6.47;3.17;;;5.40;99.90;;;;;;5047552;28;20028;-79
2021/11/19 01:41:32;;;;;;;5.63;3.25;;;5.40;99.90;;;;;;5033201;28;20045;-79
2021/11/19 01:44:00;;;;;;;5.47;3.33;;;5.40;99.90;;;;;;5030122;28;20079;-79
2021/11/19 01:46:31;;;;;;;4.60;3.08;;;5.30;99.90;;;;;;5034347;28;20037;-79
2021/11/19 01:48:58;;;;;;;4.70;2.72;;;5.30;99.90;;;;;;5043718;28;20037;-79
2021/11/19 01:51:36;;;;;;;4.68;3.50;;;5.30;99.90;;;;;;5048215;28;20025;-79
2021/11/19 01:54:20;;;;;;;5.22;3.50;;;5.30;99.90;;;;;;5047743;28;20025;-79
2021/11/19 01:57:00;;;;;;;5.78;3.67;;;5.30;99.90;;;;;;5057807;22;20038;-78
2021/11/19 01:59:57;;;;;;;5.88;3.50;;;5.30;99.90;;;;;;5003840;28;20141;-78
2021/11/19 02:02:37;;;;;;;5.38;3.15;;;5.40;99.90;;;;;;5030894;28;20443;-78
2021/11/19 02:05:34;;;;;;;4.60;2.97;;;5.30;99.90;;;;;;5018531;28;20033;-77
2021/11/19 02:08:18;;;;;;;6.78;3.60;;;5.30;99.90;;;;;;5008497;28;20023;-77
2021/11/19 02:11:13;;;;;;;4.82;3.45;;;5.30;99.90;;;;;;5006610;28;20370;-77
2021/11/19 02:14:13;;;;;;;10.30;3.70;;;5.20;99.90;;;;;;5004495;28;20030;-77
2021/11/19 02:16:42;;;;;;;7.32;3.40;;;5.20;99.90;;;;;;5006018;28;20026;-77
2021/11/19 02:19:32;;;;;;;6.22;3.40;;;5.20;99.90;;;;;;5007181;28;20116;-77
2021/11/19 02:22:08;;;;;;;5.10;2.70;;;5.20;99.90;;;;;;5001158;28;20129;-77
2021/11/19 02:24:44;;;;;;;4.88;3.15;;;5.20;99.90;;;;;;5007341;28;20030;-77
2021/11/19 02:27:33;;;;;;;5.55;3.85;;;5.20;99.90;;;;;;4998767;28;20050;-77
2021/11/19 02:30:11;;;;;;;5.65;3.53;;;5.20;99.90;;;;;;4986083;28;20096;-77
2021/11/19 02:32:50;;;;;;;5.70;3.58;;;5.20;99.90;;;;;;5007829;28;20022;-77
2021/11/19 02:35:28;;;;;;;4.32;3.67;;;5.20;99.90;;;;;;4989095;28;20026;-77
2021/11/19 02:37:57;;;;;;;4.80;3.53;;;5.20;99.90;;;;;;4994611;28;20079;-77
2021/11/19 02:40:29;;;;;;;7.50;4.18;;;5.20;99.90;;;;;;5001943;28;20029;-76
2021/11/19 02:42:59;;;;;;;5.32;3.85;;;5.30;99.90;;;;;;5006171;28;20629;-76
2021/11/19 02:45:33;;;;;;;6.25;3.50;;;5.30;99.90;;;;;;5003356;28;20030;-77
2021/11/19 02:47:59;;;;;;;6.13;3.30;;;5.30;99.90;;;;;;5000037;28;20041;-77
2021/11/19 02:50:26;;;;;;;4.90;3.53;;;5.20;99.90;;;;;;5002886;28;20034;-76
2021/11/19 02:52:57;;;;;;;5.97;3.20;;;5.20;99.90;;;;;;5002978;28;20029;-77
2021/11/19 02:55:34;;;;;;;7.18;3.53;;;5.20;99.90;;;;;;4973332;28;20030;-77
2021/11/19 02:58:01;;;;;;;5.47;3.70;;;5.20;99.90;;;;;;5005472;28;20041;-76
2021/11/19 03:00:36;;;;;;;5.90;3.90;;;5.20;99.90;;;;;;5000405;28;20677;-77
2021/11/19 03:03:02;;;;;;;4.33;3.30;;;5.20;99.90;;;;;;4983557;28;20034;-77
2021/11/19 03:05:30;;;;;;;7.18;3.53;;;5.20;99.90;;;;;;5002627;28;20027;-78
2021/11/19 03:07:57;;;;;;;5.45;3.70;;;5.20;99.90;;;;;;5008799;28;20030;-77
2021/11/19 03:10:26;;;;;;;5.28;3.75;;;5.20;99.90;;;;;;5003738;28;20520;-77
2021/11/19 03:12:54;;;;;;;5.60;3.65;;;5.30;99.90;;;;;;5004505;28;20440;-77
2021/11/19 03:15:25;;;;;;;6.43;3.92;;;5.30;99.90;;;;;;4998334;28;20033;-76
2021/11/19 03:17:51;;;;;;;4.93;3.67;;;5.20;99.90;;;;;;5001359;28;20117;-77
2021/11/19 03:20:20;;;;;;;5.78;3.30;;;5.20;99.90;;;;;;5006952;28;20133;-77
2021/11/19 03:22:47;;;;;;;5.22;3.60;;;5.10;99.90;;;;;;4997304;28;20029;-76
2021/11/19 03:25:17;;;;;;;7.18;3.47;;;5.10;99.90;;;;;;5002221;28;20116;-76
2021/11/19 03:27:45;;;;;;;4.28;2.88;;;5.10;99.90;;;;;;5004554;28;20061;-76
2021/11/19 03:30:26;;;;;;;6.45;3.50;;;5.10;99.90;;;;;;4993291;28;20029;-77
2021/11/19 03:32:52;;;;;;;5.47;3.17;;;5.20;99.90;;;;;;4996496;28;20073;-76
2021/11/19 03:35:20;;;;;;;5.00;3.05;;;5.20;99.90;;;;;;5005532;28;20048;-77
2021/11/19 03:37:49;;;;;;;5.38;3.40;;;5.20;99.90;;;;;;4997029;28;20031;-77
2021/11/19 03:40:27;;;;;;;4.75;3.05;;;5.20;99.90;;;;;;5003971;28;20062;-77
2021/11/19 03:42:54;;;;;;;7.07;3.65;;;5.20;99.90;;;;;;5000316;28;20034;-76
2021/11/19 03:45:26;;;;;;;4.65;3.20;;;5.20;99.90;;;;;;5002963;28;20034;-76
2021/11/19 03:47:53;;;;;;;5.45;3.22;;;5.20;99.90;;;;;;4993577;28;20029;-77
2021/11/19 03:50:28;;;;;;;5.00;2.92;;;5.20;99.90;;;;;;4976443;28;20129;-76
2021/11/19 03:52:54;;;;;;;6.10;3.75;;;5.20;99.90;;;;;;4999746;28;20084;-76
2021/11/19 03:55:25;;;;;;;4.25;3.30;;;5.20;99.90;;;;;;4992383;28;20034;-76
2021/11/19 03:57:51;;;;;;;5.40;3.00;;;5.20;99.90;;;;;;5005194;28;20065;-76
2021/11/19 04:00:30;;;;;;;3.38;3.05;;;5.20;99.90;;;;;;5005383;28;20030;-77
2021/11/19 04:02:57;;;;;;;4.60;3.78;;;5.20;99.90;;;;;;4990885;28;20078;-76
2021/11/19 04:05:25;;;;;;;3.75;3.10;;;5.20;99.90;;;;;;5017826;28;20073;-77
2021/11/19 04:07:51;;;;;;;3.42;3.10;;;5.20;99.90;;;;;;5010096;28;20574;-76
2021/11/19 04:10:22;;;;;;;4.95;3.13;;;5.20;99.90;;;;;;5004835;28;20057;-77
2021/11/19 04:12:49;;;;;;;4.97;3.35;;;5.20;99.90;;;;;;4991393;28;20037;-76
2021/11/19 04:15:19;;;;;;;5.28;2.83;;;5.20;99.90;;;;;;4989770;28;20036;-76
2021/11/19 04:17:46;;;;;;;2.88;2.60;;;5.30;99.90;;;;;;5007850;28;20112;-76
2021/11/19 04:20:13;;;;;;;3.45;2.88;;;5.20;99.90;;;;;;4992614;28;20034;-77
2021/11/19 04:22:42;;;;;;;4.15;3.00;;;5.20;99.90;;;;;;5007319;28;20042;-77
2021/11/19 04:25:10;;;;;;;5.15;3.20;;;5.20;99.90;;;;;;5004999;28;20071;-76
2021/11/19 04:27:38;;;;;;;4.97;2.35;;;5.30;99.90;;;;;;4991729;28;20022;-76
2021/11/19 04:30:22;;;;;;;5.22;3.28;;;5.20;99.90;;;;;;5008093;28;20026;-76
2021/11/19 04:32:49;;;;;;;4.10;3.22;;;5.30;99.90;;;;;;5002923;28;20037;-76
2021/11/19 04:35:16;;;;;;;3.88;2.75;;;5.40;99.90;;;;;;5006133;28;20040;-76
2021/11/19 04:37:42;;;;;;;3.80;2.55;;;5.30;99.90;;;;;;5006325;28;20435;-76
2021/11/19 04:40:12;;;;;;;5.13;3.15;;;5.30;99.90;;;;;;4993910;28;20084;-76
2021/11/19 04:42:39;;;;;;;3.22;2.65;;;5.40;99.90;;;;;;4986734;28;20037;-76
2021/11/19 04:45:08;;;;;;;3.55;3.15;;;5.30;99.90;;;;;;5006668;28;20060;-76
2021/11/19 04:47:36;;;;;;;4.47;2.90;;;5.30;99.90;;;;;;5003725;28;20050;-76
2021/11/19 04:50:05;;;;;;;5.10;2.85;;;5.30;99.90;;;;;;5001728;28;20428;-77
2021/11/19 04:52:31;;;;;;;2.53;2.33;;;5.30;99.90;;;;;;5004321;28;20037;-77
2021/11/19 04:54:57;;;;;;;2.60;2.40;;;5.30;99.90;;;;;;4991696;28;20038;-76
2021/11/19 04:57:22;;;;;;;3.60;2.67;;;5.30;99.90;;;;;;5000364;28;20168;-76
2021/11/19 04:59:48;;;;;;;2.60;2.28;;;5.30;99.90;;;;;;4968380;28;20053;-76
2021/11/19 05:02:17;;;;;;;3.70;3.00;;;5.30;99.90;;;;;;5008012;28;20495;-76
2021/11/19 05:05:02;;;;;;;3.22;2.60;;;5.40;99.90;;;;;;4991809;28;20044;-78
2021/11/19 05:07:29;;;;;;;2.13;2.00;;;5.40;99.90;;;;;;5002929;28;20026;-77
2021/11/19 05:09:56;;;;;;;3.90;2.58;;;5.40;99.90;;;;;;5007443;28;20030;-76
2021/11/19 05:12:27;;;;;;;3.75;2.90;;;5.40;99.90;;;;;;5008272;28;20362;-77
2021/11/19 05:14:54;;;;;;;4.05;2.20;;;5.30;99.90;;;;;;5008312;28;20022;-77
2021/11/19 05:17:22;;;;;;;2.97;2.15;;;5.30;99.90;;;;;;5005406;28;20036;-76
2021/11/19 05:19:51;;;;;;;3.13;2.30;;;5.30;99.90;;;;;;4991063;28;20026;-76
2021/11/19 05:22:18;;;;;;;3.10;2.58;;;5.30;99.90;;;;;;5015478;28;20047;-76
2021/11/19 05:24:45;;;;;;;3.40;2.22;;;5.30;99.90;;;;;;5005247;28;20093;-76
2021/11/19 05:27:12;;;;;;;2.65;2.45;;;5.40;99.90;;;;;;4988780;28;20571;-76
2021/11/19 05:29:38;;;;;;;2.85;2.45;;;5.40;99.90;;;;;;4979785;28;20036;-76
2021/11/19 05:32:06;;;;;;;2.63;2.42;;;5.30;99.90;;;;;;5001289;28;20142;-76
2021/11/19 05:34:32;;;;;;;3.45;2.80;;;5.30;99.90;;;;;;5006755;28;20034;-76
2021/11/19 05:36:57;;;;;;;3.15;2.53;;;5.30;99.90;;;;;;5002126;28;20064;-76
2021/11/19 05:39:23;;;;;;;2.88;2.60;;;5.40;99.90;;;;;;4992358;28;20041;-77
2021/11/19 05:41:51;;;;;;;3.05;2.53;;;5.40;99.90;;;;;;4993927;28;20022;-77
2021/11/19 05:44:17;;;;;;;3.45;2.35;;;5.30;99.90;;;;;;4993846;28;20073;-77
2021/11/19 05:46:53;;;;;;;2.97;2.47;;;5.30;99.90;;;;;;4988583;28;20068;-76
2021/11/19 05:49:21;;;;;;;3.03;2.22;;;5.30;99.90;;;;;;4999099;28;20029;-77
2021/11/19 05:51:51;;;;;;;4.07;2.40;;;5.30;99.90;;;;;;5005350;28;20117;-76
2021/11/19 05:54:18;;;;;;;2.80;2.45;;;5.30;99.90;;;;;;5007348;28;20511;-76
2021/11/19 05:56:45;;;;;;;2.33;2.10;;;5.40;99.90;;;;;;5003744;28;20496;-77
2021/11/19 05:59:11;;;;;;;2.65;2.40;;;5.30;99.90;;;;;;5024868;28;20120;-76
2021/11/19 06:02:00;;;;;;;2.80;2.20;;;5.40;99.90;;;;;;5004306;28;20523;-78
2021/11/19 06:04:39;;;;;;;3.08;2.47;;;5.40;99.90;;;;;;5002002;28;20042;-78
2021/11/19 06:07:25;;;;;;;2.88;2.45;;;5.30;99.90;;;;;;4989238;28;20093;-78
2021/11/19 06:09:51;;;;;;;2.75;2.13;;;5.40;99.90;;;;;;5010352;28;20018;-78
2021/11/19 06:12:21;;;;;;;2.10;1.90;;;5.40;99.90;;;;;;5007708;28;20073;-77
2021/11/19 06:14:55;;;;;;;2.35;2.15;;;5.30;99.90;;;;;;5004440;28;20050;-76
2021/11/19 06:17:34;;;;;;;2.60;2.40;;;5.30;99.90;;;;;;5000538;28;20395;-76
2021/11/19 06:20:11;;;;;;;2.40;2.00;;;5.30;99.90;;;;;;4988408;28;20129;-76
2021/11/19 06:22:44;;;;;;;4.70;2.67;;;5.30;99.90;;;;;;4982657;28;20385;-76
2021/11/19 06:25:14;;;;;;;3.75;2.63;;;5.40;99.90;;;;;;4999678;28;20122;-76
2021/11/19 06:27:41;;;;;;;2.72;2.35;;;5.40;99.90;;;;;;5004010;28;20029;-76
2021/11/19 06:30:14;;;;;;;2.60;2.40;;;5.30;99.90;;;;;;4997837;28;20038;-76
2021/11/19 06:32:41;;;;;;;2.70;2.13;;;5.30;99.90;;;;;;5004235;28;20209;-76
2021/11/19 06:35:08;;;;;;;2.72;2.20;;;5.30;99.90;;;;;;4987341;28;20042;-76
2021/11/19 06:37:34;;;;;;;2.55;2.28;;;5.30;99.90;;;;;;4970637;28;20025;-76
2021/11/19 06:40:15;;;;;;;2.60;2.30;;;5.30;99.90;;;;;;5003680;28;20406;-76
2021/11/19 06:43:00;;;;;;;2.70;2.35;;;5.30;99.90;;;;;;5004628;28;20089;-76
2021/11/19 06:45:45;;;;;;;2.83;2.30;;;5.30;99.90;;;;;;5005959;28;20528;-76
2021/11/19 06:48:44;;;;;;;2.55;2.00;;;5.30;99.90;;;;;;4998509;28;20478;-76
2021/11/19 06:51:39;;;;;;;2.40;2.20;;;5.30;99.90;;;;;;5021364;28;20142;-76
2021/11/19 06:54:23;;;;;;;2.63;2.42;;;5.30;99.90;;;;;;5002557;28;20121;-76
2021/11/19 06:57:11;;;;;;;2.47;2.25;;;5.40;99.90;;;;;;4979508;28;20041;-75
2021/11/19 06:59:40;;;;;;;2.80;2.50;;;5.40;99.90;;;;;;5003482;28;20076;-76
2021/11/19 07:02:07;;;;;;;2.33;1.98;;;5.40;99.90;;;;;;4996406;28;20085;-76
2021/11/19 07:04:34;;;;;;;4.18;2.50;;;5.40;99.90;;;;;;4973021;28;20034;-76
2021/11/19 07:07:01;;;;;;;2.65;2.15;;;5.40;99.90;;;;;;4988772;28;20096;-76
2021/11/19 07:09:27;;;;;;;2.53;2.30;;;5.40;99.90;;;;;;4988379;28;20025;-76
2021/11/19 07:11:55;;;;;;;2.03;1.83;;;5.40;99.90;;;;;;4998203;28;20096;-76
2021/11/19 07:14:27;;;;;;;2.25;2.00;;;5.40;99.90;;;;;;5000569;28;20392;-76
2021/11/19 07:16:53;;;;;;;2.10;1.90;;;5.40;99.90;;;;;;4997137;28;20030;-76
2021/11/19 07:19:20;;;;;;;2.05;1.95;;;5.40;99.90;;;;;;5000749;28;20100;-76
2021/11/19 07:21:46;;;;;;;3.10;2.30;;;5.40;99.90;;;;;;4989699;28;20501;-78
2021/11/19 07:24:12;;;;;;;2.35;2.10;;;5.50;99.90;;;;;;5004014;28;20037;-75
2021/11/19 07:26:39;;;;;;;2.30;2.10;;;5.50;99.90;;;;;;4985739;28;20022;-76
2021/11/19 07:29:06;;;;;;;2.45;2.25;;;5.50;99.90;;;;;;4993377;28;20031;-76
2021/11/19 07:31:50;;;;;;;2.83;1.90;;;5.50;99.90;;;;;;4994816;28;20561;-76
2021/11/19 07:34:44;;;;;;;2.85;1.92;;;5.50;99.90;;;;;;5005982;28;20112;-76
2021/11/19 07:37:27;;;;;;;2.38;2.17;;;5.50;99.90;;;;;;4997163;28;20048;-76
2021/11/19 07:39:58;;;;;;;1.65;1.50;;;5.60;99.90;;;;;;4972617;28;20054;-75
2021/11/19 07:42:33;;;;;;;2.40;2.08;;;5.50;99.90;;;;;;4980746;28;20030;-75
2021/11/19 07:45:06;;;;;;;2.75;1.83;;;5.60;99.90;;;;;;4989425;28;20113;-76
2021/11/19 07:47:39;;;;;;;2.80;2.15;;;5.60;99.90;;;;;;4992212;28;20697;-76
2021/11/19 07:50:08;;;;;;;2.20;2.00;;;5.60;99.90;;;;;;4991190;28;20038;-75
2021/11/19 07:52:35;;;;;;;2.15;1.95;;;5.60;99.90;;;;;;4985090;28;20457;-75
2021/11/19 07:55:02;;;;;;;2.58;2.00;;;5.60;99.90;;;;;;4994808;28;20061;-75
2021/11/19 07:57:29;;;;;;;2.00;1.90;;;5.60;99.90;;;;;;4993256;28;20182;-76
2021/11/19 07:59:54;;;;;;;2.75;1.83;;;5.60;99.90;;;;;;4987321;28;20082;-76
2021/11/19 08:02:20;;;;;;;2.70;1.70;;;5.60;99.90;;;;;;4977596;28;20637;-76
2021/11/19 08:04:46;;;;;;;2.17;1.98;;;5.60;99.90;;;;;;4988460;28;20030;-75
2021/11/19 08:07:22;;;;;;;5.47;1.90;;;5.70;99.90;;;;;;4974168;28;20029;-76
2021/11/19 08:09:48;;;;;;;2.45;1.80;;;5.70;99.90;;;;;;4999432;28;20392;-76
2021/11/19 08:12:22;;;;;;;2.30;1.83;;;5.60;99.90;;;;;;4981340;28;20405;-75
2021/11/19 08:15:05;;;;;;;2.35;1.98;;;5.60;99.90;;;;;;4998730;28;20033;-75
2021/11/19 08:17:38;;;;;;;2.13;1.73;;;5.70;99.90;;;;;;4985318;28;20049;-76
2021/11/19 08:20:22;;;;;;;1.77;1.67;;;5.70;99.90;;;;;;4997569;28;20045;-77
2021/11/19 08:22:48;;;;;;;1.90;1.80;;;5.70;99.90;;;;;;4999119;28;20037;-76
2021/11/19 08:25:14;;;;;;;1.95;1.70;;;5.80;99.90;;;;;;5024399;23;20037;-87
2021/11/19 08:27:45;;;;;;;2.00;1.80;;;5.80;99.90;;;;;;4993706;28;20033;-88
2021/11/19 08:30:27;;;;;;;1.95;1.70;;;5.80;99.90;;;;;;4975502;28;20113;-87
2021/11/19 08:32:53;;;;;;;2.00;1.85;;;5.90;99.90;;;;;;5007774;28;20089;-88
2021/11/19 08:35:19;;;;;;;2.00;1.80;;;5.90;99.90;;;;;;4972662;28;20427;-88
2021/11/19 08:37:46;;;;;;;1.70;1.60;;;5.90;99.90;;;;;;4972904;28;20037;-87
2021/11/19 08:40:13;;;;;;;2.25;1.85;;;6.00;99.90;;;;;;4978942;28;20030;-87
2021/11/19 08:42:40;;;;;;;1.63;1.52;;;6.00;99.90;;;;;;5003993;28;20120;-88
2021/11/19 08:45:08;;;;;;;1.70;1.60;;;6.00;99.90;;;;;;4978563;28;20097;-85
2021/11/19 08:47:34;;;;;;;2.15;1.88;;;6.10;99.90;;;;;;4970881;28;20034;-85
2021/11/19 08:50:02;;;;;;;2.88;1.65;;;6.10;99.90;;;;;;4979557;28;20081;-86
2021/11/19 08:52:28;;;;;;;2.30;1.55;;;6.10;99.90;;;;;;5006549;28;20027;-86
2021/11/19 08:54:54;;;;;;;1.67;1.58;;;6.10;99.90;;;;;;4978061;28;20050;-85
2021/11/19 08:57:23;;;;;;;1.60;1.50;;;6.10;99.90;;;;;;4979204;28;20489;-85
2021/11/19 08:59:50;;;;;;;1.88;1.67;;;6.20;99.90;;;;;;4962994;28;20544;-86
2021/11/19 09:02:19;;;;;;;2.10;1.90;;;6.10;99.90;;;;;;4995037;28;20109;-85
2021/11/19 09:04:46;;;;;;;3.25;2.00;;;6.20;99.90;;;;;;4993422;28;20436;-85
2021/11/19 09:07:13;;;;;;;2.92;1.83;;;6.20;99.90;;;;;;4965667;28;20030;-86
2021/11/19 09:09:41;;;;;;;2.35;1.55;;;6.20;99.90;;;;;;4994377;28;20451;-86
2021/11/19 09:12:07;;;;;;;2.25;2.00;;;6.20;99.90;;;;;;4977073;28;20495;-86
2021/11/19 09:14:33;;;;;;;2.00;1.80;;;6.20;99.90;;;;;;4992487;28;20031;-88
2021/11/19 09:17:41;;;;;;;2.10;1.90;;;6.20;99.90;;;;;;5006169;28;20021;-86
2021/11/19 09:20:25;;;;;;;3.17;1.67;;;6.20;99.90;;;;;;5018942;28;20480;-87
2021/11/19 09:23:03;;;;;;;2.47;2.20;;;6.30;99.90;;;;;;5016199;28;20038;-86
2021/11/19 09:25:30;;;;;;;2.95;2.60;;;6.20;99.90;;;;;;4974571;28;20037;-87
2021/11/19 09:27:56;;;;;;;2.58;2.38;;;6.30;99.90;;;;;;5001312;28;20109;-91
2021/11/19 09:30:26;;;;;;;2.40;2.20;;;6.30;99.90;;;;;;4983762;28;20022;-86
2021/11/19 09:32:57;;;;;;;3.28;2.50;;;6.40;99.90;;;;;;4975820;28;20118;-87
2021/11/19 09:35:27;;;;;;;3.33;2.90;;;6.40;99.90;;;;;;4997356;28;20113;-88
2021/11/19 09:37:53;;;;;;;2.90;2.40;;;6.40;99.90;;;;;;4977572;28;20270;-88
2021/11/19 09:40:33;;;;;;;2.25;2.05;;;6.40;99.90;;;;;;4995051;28;20034;-87
2021/11/19 09:43:14;;;;;;;3.58;2.40;;;6.40;99.90;;;;;;4983987;28;20117;-86
2021/11/19 09:46:01;;;;;;;2.45;2.25;;;6.40;99.90;;;;;;4972417;28;20113;-86
2021/11/19 09:48:35;;;;;;;2.28;2.08;;;6.40;99.90;;;;;;4990337;28;20030;-89
2021/11/19 09:51:38;;;;;;;2.40;2.20;;;6.40;99.90;;;;;;4972920;28;20042;-89
2021/11/19 09:54:26;;;;;;;3.17;2.58;;;6.40;99.90;;;;;;4983719;28;20042;-86
2021/11/19 09:57:25;;;;;;;2.83;2.25;;;6.40;99.90;;;;;;5010941;28;20028;-89
2021/11/19 10:00:12;;;;;;;2.28;2.08;;;6.40;99.90;;;;;;4995261;28;20035;-86
2021/11/19 10:03:10;;;;;;;2.33;2.05;;;6.40;99.90;;;;;;4988784;28;20091;-89
2021/11/19 10:05:42;;;;;;;2.58;2.38;;;6.40;99.90;;;;;;4974419;28;20036;-86
2021/11/19 10:08:26;;;;;;;2.60;2.40;;;6.40;99.90;;;;;;4991554;28;20018;-88
2021/11/19 10:11:13;;;;;;;2.35;2.10;;;6.40;99.90;;;;;;4991958;28;20035;-90
2021/11/19 10:14:17;;;;;;;3.47;2.35;;;6.50;99.90;;;;;;4993785;28;20046;-88
2021/11/19 10:17:04;;;;;;;2.95;2.30;;;6.60;99.90;;;;;;5004408;28;20034;-87
2021/11/19 10:19:42;;;;;;;2.65;1.75;;;6.60;99.90;;;;;;4979201;28;20042;-86
2021/11/19 10:22:34;;;;;;;2.22;2.03;;;6.60;99.90;;;;;;4968106;28;20043;-86
2021/11/19 10:25:07;;;;;;;2.63;1.92;;;6.60;99.90;;;;;;4967341;28;20517;-86
2021/11/19 10:27:43;;;;;;;2.25;2.05;;;6.60;99.90;;;;;;4970240;28;20053;-87
2021/11/19 10:30:32;;;;;;;2.22;1.98;;;6.60;99.90;;;;;;5007172;28;20496;-87
2021/11/19 10:33:17;;;;;;;2.13;1.95;;;6.60;99.90;;;;;;4998549;28;20026;-86
2021/11/19 10:36:15;;;;;;;2.55;2.33;;;6.60;99.90;;;;;;4966104;28;20126;-86
2021/11/19 10:39:18;;;;;;;1.67;1.58;;;6.70;99.90;;;;;;4969074;28;20508;-86
2021/11/19 10:42:15;;;;;;;2.22;2.00;;;6.70;99.90;;;;;;4984798;28;20481;-89
2021/11/19 10:44:56;;;;;;;2.10;1.90;;;6.70;99.90;;;;;;4982599;28;20034;-87
2021/11/19 10:47:41;;;;;;;1.90;1.80;;;6.80;99.90;;;;;;5005125;28;20085;-86
2021/11/19 10:50:31;;;;;;;3.10;1.80;;;6.70;99.90;;;;;;4989089;28;20029;-88
2021/11/19 10:53:15;;;;;;;2.00;1.83;;;6.80;99.90;;;;;;5003793;28;20501;-87
2021/11/19 10:55:57;;;;;;;2.00;1.80;;;6.80;99.90;;;;;;4989120;28;20045;-88
2021/11/19 10:58:46;;;;;;;2.42;2.20;;;6.80;99.90;;;;;;4971396;28;20041;-88
2021/11/19 11:01:26;;;;;;;2.00;1.77;;;6.80;99.90;;;;;;5006325;28;20041;-87
2021/11/19 11:03:55;;;;;;;2.80;1.90;;;6.80;99.90;;;;;;5004711;28;20056;-86
2021/11/19 11:06:40;;;;;;;2.53;2.03;;;6.80;99.90;;;;;;4993670;28;20030;-87
2021/11/19 11:09:18;;;;;;;2.42;2.05;;;6.80;99.90;;;;;;4991506;28;20037;-87
2021/11/19 11:11:44;;;;;;;1.90;1.77;;;6.80;99.90;;;;;;4990511;28;20030;-87
2021/11/19 11:14:11;;;;;;;1.75;1.65;;;6.80;99.90;;;;;;4979134;28;20140;-88
2021/11/19 11:16:43;;;;;;;2.20;2.00;;;6.80;99.90;;;;;;4957058;28;20462;-88
2021/11/19 11:19:09;;;;;;;1.85;1.70;;;6.80;99.90;;;;;;4990268;28;20085;-86
2021/11/19 11:21:59;;;;;;;2.00;1.60;;;6.90;99.90;;;;;;4975022;28;20031;-87
2021/11/19 11:24:54;;;;;;;2.42;1.80;;;6.90;99.90;;;;;;4981096;28;20373;-86
2021/11/19 11:28:12;;;;;;;1.92;1.60;;;6.90;99.90;;;;;;4987651;28;20620;-89
2021/11/19 11:30:53;;;;;;;2.83;1.80;;;7.00;99.90;;;;;;4968348;28;20034;-87
2021/11/19 11:33:26;;;;;;;1.60;1.50;;;6.90;99.90;;;;;;4968911;28;20034;-86
2021/11/19 11:36:09;;;;;;;1.60;1.50;;;6.90;99.90;;;;;;5007749;28;20504;-86
2021/11/19 11:38:44;;;;;;;1.42;1.33;;;6.90;99.90;;;;;;4978498;28;20499;-87
2021/11/19 11:41:31;;;;;;;1.65;1.40;;;6.90;99.90;;;;;;4996052;28;20034;-87
2021/11/19 11:44:11;;;;;;;1.65;1.50;;;6.90;99.90;;;;;;4979984;28;20082;-86
2021/11/19 11:46:56;;;;;;;1.38;1.23;;;6.90;99.90;;;;;;5012192;28;20116;-86
2021/11/19 11:49:31;;;;;;;2.20;1.55;;;6.90;99.90;;;;;;4989683;28;20031;-85
2021/11/19 11:52:18;;;;;;;1.20;1.10;;;6.90;99.90;;;;;;4975263;28;20448;-87
2021/11/19 11:54:59;;;;;;;1.05;0.95;;;6.90;99.90;;;;;;4984155;28;20088;-85
2021/11/19 11:57:43;;;;;;;0.98;0.85;;;6.90;99.90;;;;;;5005143;28;20046;-86
2021/11/19 12:00:41;;;;;;;1.65;1.45;;;7.00;99.90;;;;;;5010237;28;20464;-86
2021/11/19 12:03:29;;;;;;;1.38;1.27;;;7.00;99.90;;;;;;4973144;28;20041;-87
2021/11/19 12:06:06;;;;;;;1.00;1.00;;;7.00;99.90;;;;;;4990175;28;20845;-86
2021/11/19 12:08:47;;;;;;;1.13;1.02;;;7.00;99.90;;;;;;5000926;28;20029;-86
2021/11/19 12:11:46;;;;;;;1.30;1.20;;;6.90;99.90;;;;;;4979161;28;20030;-85
2021/11/19 12:14:12;;;;;;;0.95;0.93;;;7.00;99.90;;;;;;4978811;28;20060;-86
2021/11/19 12:16:38;;;;;;;1.50;1.40;;;7.00;99.90;;;;;;4987865;28;20022;-86
2021/11/19 12:19:15;;;;;;;1.50;1.40;;;7.00;99.90;;;;;;4979250;28;20113;-85
2021/11/19 12:22:00;;;;;;;1.33;1.20;;;7.00;99.90;;;;;;4995398;28;20781;-86
2021/11/19 12:24:54;;;;;;;2.28;1.40;;;7.00;99.90;;;;;;5010638;28;20042;-85
2021/11/19 12:27:38;;;;;;;1.15;1.10;;;7.00;99.90;;;;;;4970647;28;20126;-86
2021/11/19 12:30:19;;;;;;;1.30;1.17;;;7.10;99.90;;;;;;5001593;28;20034;-87
2021/11/19 12:32:54;;;;;;;1.33;1.20;;;7.10;99.90;;;;;;4992237;28;20022;-86
2021/11/19 12:35:29;;;;;;;1.48;1.15;;;7.20;99.90;;;;;;4988293;28;20619;-87
2021/11/19 12:38:14;;;;;;;1.30;1.20;;;7.20;99.90;;;;;;4989132;28;20025;-87
2021/11/19 12:40:57;;;;;;;1.33;1.10;;;7.20;99.90;;;;;;4988635;28;20189;-87
2021/11/19 12:43:41;;;;;;;1.42;1.33;;;7.20;99.90;;;;;;5005704;28;20052;-87
2021/11/19 12:46:44;;;;;;;1.30;1.00;;;7.20;99.90;;;;;;4973934;28;20061;-88
2021/11/19 12:49:30;;;;;;;1.25;1.15;;;7.20;99.90;;;;;;4965191;28;20034;-88
2021/11/19 12:52:05;;;;;;;1.30;1.05;;;7.20;99.90;;;;;;4970241;28;20031;-85
2021/11/19 12:54:44;;;;;;;1.35;0.90;;;7.20;99.90;;;;;;5002064;28;20049;-85
2021/11/19 12:57:35;;;;;;;0.90;0.88;;;7.20;99.90;;;;;;4981187;28;20592;-86
2021/11/19 13:00:06;;;;;;;0.77;0.77;;;7.20;99.90;;;;;;5005146;28;20564;-86
2021/11/19 13:02:46;;;;;;;1.50;0.98;;;7.20;99.90;;;;;;4975865;28;20026;-86
2021/11/19 13:05:26;;;;;;;1.20;1.08;;;7.30;99.90;;;;;;4961540;28;20069;-86
2021/11/19 13:07:55;;;;;;;1.10;1.00;;;7.20;99.90;;;;;;5002781;28;20494;-85
2021/11/19 13:10:21;;;;;;;1.02;0.93;;;7.20;99.90;;;;;;4983413;28;20041;-87
2021/11/19 13:13:02;;;;;;;1.10;1.00;;;7.20;99.90;;;;;;4987804;28;20018;-83
2021/11/19 13:15:48;;;;;;;0.88;0.80;;;7.20;99.90;;;;;;4990883;28;20417;-86
2021/11/19 13:18:16;;;;;;;1.20;1.10;;;7.20;99.90;;;;;;4971972;28;20042;-86
2021/11/19 13:20:48;;;;;;;1.15;1.00;;;7.20;99.90;;;;;;4971540;28;20030;-85
2021/11/19 13:23:29;;;;;;;1.27;0.80;;;7.20;99.90;;;;;;4988405;28;20034;-86
2021/11/19 13:25:59;;;;;;;1.05;0.90;;;7.20;99.90;;;;;;4980970;28;20556;-85
2021/11/19 13:28:52;;;;;;;1.08;0.90;;;7.20;99.90;;;;;;4969259;28;20117;-87
2021/11/19 13:31:21;;;;;;;0.85;0.85;;;7.20;99.90;;;;;;4990448;28;20045;-86
2021/11/19 13:34:05;;;;;;;1.13;1.02;;;7.20;99.90;;;;;;5000746;28;20061;-86
2021/11/19 13:36:38;;;;;;;1.15;0.95;;;7.20;99.90;;;;;;4999889;28;20081;-86